sensor_id;sensor_type;location;lat;lon;timestamp;P1;durP1;ratioP1;P2;durP2;ratioP2
53879;SDS011;39791;53.184;5.486;2022-12-18T00:00:28;115.63;;;53.17;;
53879;SDS011;39791;53.184;5.486;2022-12-18T00:02:55;95.72;;;43.97;;
53879;SDS011;39791;53.184;5.486;2022-12-18T00:05:20;106.53;;;49.58;;
53879;SDS011;39791;53.184;5.486;2022-12-18T00:07:46;103.30;;;47.30;;
53879;SDS011;39791;53.184;5.486;2022-12-18T00:10:11;96.03;;;46.00;;
53879;SDS011;39791;53.184;5.486;2022-12-18T00:12:37;104.13;;;51.38;;
53879;SDS011;39791;53.184;5.486;2022-12-18T00:15:03;100.85;;;48.10;;
53879;SDS011;39791;53.184;5.486;2022-12-18T00:17:28;100.43;;;48.38;;
53879;SDS011;39791;53.184;5.486;2022-12-18T00:19:54;102.10;;;49.38;;
53879;SDS011;39791;53.184;5.486;2022-12-18T00:22:19;107.20;;;50.03;;
53879;SDS011;39791;53.184;5.486;2022-12-18T00:24:45;99.53;;;41.60;;
53879;SDS011;39791;53.184;5.486;2022-12-18T00:27:11;560.53;;;64.78;;
53879;SDS011;39791;53.184;5.486;2022-12-18T00:29:36;89.57;;;38.10;;
53879;SDS011;39791;53.184;5.486;2022-12-18T00:32:02;119.47;;;55.22;;
53879;SDS011;39791;53.184;5.486;2022-12-18T00:34:27;109.38;;;50.50;;
53879;SDS011;39791;53.184;5.486;2022-12-18T00:36:53;111.68;;;50.33;;
53879;SDS011;39791;53.184;5.486;2022-12-18T00:39:18;85.00;;;39.90;;
53879;SDS011;39791;53.184;5.486;2022-12-18T00:41:44;100.07;;;45.70;;
53879;SDS011;39791;53.184;5.486;2022-12-18T00:44:28;115.03;;;52.42;;
53879;SDS011;39791;53.184;5.486;2022-12-18T00:46:53;119.63;;;55.53;;
53879;SDS011;39791;53.184;5.486;2022-12-18T00:49:19;132.07;;;58.83;;
53879;SDS011;39791;53.184;5.486;2022-12-18T00:51:45;122.38;;;56.42;;
53879;SDS011;39791;53.184;5.486;2022-12-18T00:54:11;126.38;;;56.78;;
53879;SDS011;39791;53.184;5.486;2022-12-18T00:56:37;75.97;;;35.63;;
53879;SDS011;39791;53.184;5.486;2022-12-18T00:59:03;100.43;;;44.20;;
53879;SDS011;39791;53.184;5.486;2022-12-18T01:01:29;102.25;;;45.63;;
53879;SDS011;39791;53.184;5.486;2022-12-18T01:03:59;104.50;;;47.35;;
53879;SDS011;39791;53.184;5.486;2022-12-18T01:06:26;80.03;;;38.47;;
53879;SDS011;39791;53.184;5.486;2022-12-18T01:08:51;73.22;;;33.08;;
53879;SDS011;39791;53.184;5.486;2022-12-18T01:11:17;78.53;;;35.70;;
53879;SDS011;39791;53.184;5.486;2022-12-18T01:13:45;107.47;;;48.15;;
53879;SDS011;39791;53.184;5.486;2022-12-18T01:16:12;72.13;;;36.30;;
53879;SDS011;39791;53.184;5.486;2022-12-18T01:18:38;96.50;;;44.38;;
53879;SDS011;39791;53.184;5.486;2022-12-18T01:21:08;91.93;;;45.55;;
53879;SDS011;39791;53.184;5.486;2022-12-18T01:23:36;106.45;;;46.08;;
53879;SDS011;39791;53.184;5.486;2022-12-18T01:26:15;107.32;;;49.70;;
53879;SDS011;39791;53.184;5.486;2022-12-18T01:28:41;115.80;;;53.20;;
53879;SDS011;39791;53.184;5.486;2022-12-18T01:31:30;100.20;;;45.95;;
53879;SDS011;39791;53.184;5.486;2022-12-18T01:33:56;99.20;;;45.92;;
53879;SDS011;39791;53.184;5.486;2022-12-18T01:36:23;96.53;;;45.47;;
53879;SDS011;39791;53.184;5.486;2022-12-18T01:38:51;119.10;;;52.38;;
53879;SDS011;39791;53.184;5.486;2022-12-18T01:41:18;93.15;;;44.50;;
53879;SDS011;39791;53.184;5.486;2022-12-18T01:46:18;104.43;;;49.33;;
53879;SDS011;39791;53.184;5.486;2022-12-18T01:48:45;117.18;;;50.35;;
53879;SDS011;39791;53.184;5.486;2022-12-18T01:51:12;119.18;;;54.72;;
53879;SDS011;39791;53.184;5.486;2022-12-18T01:53:39;89.03;;;38.42;;
53879;SDS011;39791;53.184;5.486;2022-12-18T01:56:06;100.57;;;45.88;;
53879;SDS011;39791;53.184;5.486;2022-12-18T01:59:15;86.50;;;37.22;;
53879;SDS011;39791;53.184;5.486;2022-12-18T02:01:24;97.75;;;42.55;;
53879;SDS011;39791;53.184;5.486;2022-12-18T02:03:51;74.10;;;33.55;;
53879;SDS011;39791;53.184;5.486;2022-12-18T02:09:08;115.78;;;55.00;;
53879;SDS011;39791;53.184;5.486;2022-12-18T02:14:49;90.78;;;41.67;;
53879;SDS011;39791;53.184;5.486;2022-12-18T02:17:36;94.88;;;44.33;;
53879;SDS011;39791;53.184;5.486;2022-12-18T02:23:00;99.15;;;44.28;;
53879;SDS011;39791;53.184;5.486;2022-12-18T02:25:54;81.80;;;37.05;;
53879;SDS011;39791;53.184;5.486;2022-12-18T02:28:41;93.90;;;42.33;;
53879;SDS011;39791;53.184;5.486;2022-12-18T02:31:11;77.55;;;36.80;;
53879;SDS011;39791;53.184;5.486;2022-12-18T02:33:42;94.28;;;44.20;;
53879;SDS011;39791;53.184;5.486;2022-12-18T02:36:09;106.93;;;48.53;;
53879;SDS011;39791;53.184;5.486;2022-12-18T02:38:37;75.82;;;38.10;;
53879;SDS011;39791;53.184;5.486;2022-12-18T02:41:04;98.05;;;44.40;;
53879;SDS011;39791;53.184;5.486;2022-12-18T02:43:31;112.15;;;46.75;;
53879;SDS011;39791;53.184;5.486;2022-12-18T02:45:58;112.15;;;48.53;;
53879;SDS011;39791;53.184;5.486;2022-12-18T02:48:32;98.47;;;46.63;;
53879;SDS011;39791;53.184;5.486;2022-12-18T02:51:01;97.05;;;43.17;;
53879;SDS011;39791;53.184;5.486;2022-12-18T02:53:41;82.40;;;37.85;;
53879;SDS011;39791;53.184;5.486;2022-12-18T02:56:21;78.35;;;35.97;;
53879;SDS011;39791;53.184;5.486;2022-12-18T02:59:07;76.03;;;35.58;;
53879;SDS011;39791;53.184;5.486;2022-12-18T03:01:40;84.78;;;40.17;;
53879;SDS011;39791;53.184;5.486;2022-12-18T03:04:28;86.15;;;39.95;;
53879;SDS011;39791;53.184;5.486;2022-12-18T03:07:05;88.70;;;41.88;;
53879;SDS011;39791;53.184;5.486;2022-12-18T03:09:38;107.93;;;50.47;;
53879;SDS011;39791;53.184;5.486;2022-12-18T03:12:09;124.07;;;57.53;;
53879;SDS011;39791;53.184;5.486;2022-12-18T03:14:49;102.25;;;44.95;;
53879;SDS011;39791;53.184;5.486;2022-12-18T03:17:21;98.80;;;45.28;;
53879;SDS011;39791;53.184;5.486;2022-12-18T03:19:50;82.75;;;37.80;;
53879;SDS011;39791;53.184;5.486;2022-12-18T03:22:18;106.60;;;48.45;;
53879;SDS011;39791;53.184;5.486;2022-12-18T03:24:46;88.57;;;42.58;;
53879;SDS011;39791;53.184;5.486;2022-12-18T03:27:14;106.72;;;48.58;;
53879;SDS011;39791;53.184;5.486;2022-12-18T03:29:51;87.88;;;40.03;;
53879;SDS011;39791;53.184;5.486;2022-12-18T03:32:32;86.15;;;39.80;;
53879;SDS011;39791;53.184;5.486;2022-12-18T03:35:02;84.32;;;40.42;;
53879;SDS011;39791;53.184;5.486;2022-12-18T03:37:30;83.00;;;41.13;;
53879;SDS011;39791;53.184;5.486;2022-12-18T03:39:56;102.13;;;48.97;;
53879;SDS011;39791;53.184;5.486;2022-12-18T03:42:26;111.47;;;51.03;;
53879;SDS011;39791;53.184;5.486;2022-12-18T03:44:59;122.68;;;53.20;;
53879;SDS011;39791;53.184;5.486;2022-12-18T03:50:20;88.20;;;41.08;;
53879;SDS011;39791;53.184;5.486;2022-12-18T03:53:08;78.82;;;39.72;;
53879;SDS011;39791;53.184;5.486;2022-12-18T03:55:35;84.28;;;42.35;;
53879;SDS011;39791;53.184;5.486;2022-12-18T03:58:03;85.03;;;41.58;;
53879;SDS011;39791;53.184;5.486;2022-12-18T04:00:31;84.97;;;41.85;;
53879;SDS011;39791;53.184;5.486;2022-12-18T04:02:59;86.72;;;42.30;;
53879;SDS011;39791;53.184;5.486;2022-12-18T04:05:26;104.20;;;50.35;;
53879;SDS011;39791;53.184;5.486;2022-12-18T04:07:53;101.55;;;48.95;;
53879;SDS011;39791;53.184;5.486;2022-12-18T04:10:21;95.47;;;45.15;;
53879;SDS011;39791;53.184;5.486;2022-12-18T04:12:47;106.57;;;48.45;;
53879;SDS011;39791;53.184;5.486;2022-12-18T04:15:13;92.45;;;43.67;;
53879;SDS011;39791;53.184;5.486;2022-12-18T04:17:39;85.88;;;38.70;;
53879;SDS011;39791;53.184;5.486;2022-12-18T04:20:12;95.28;;;43.63;;
53879;SDS011;39791;53.184;5.486;2022-12-18T04:22:38;96.65;;;44.83;;
53879;SDS011;39791;53.184;5.486;2022-12-18T04:25:03;93.60;;;41.92;;
53879;SDS011;39791;53.184;5.486;2022-12-18T04:27:29;95.82;;;42.25;;
53879;SDS011;39791;53.184;5.486;2022-12-18T04:29:55;94.93;;;42.60;;
53879;SDS011;39791;53.184;5.486;2022-12-18T04:32:21;80.35;;;34.45;;
53879;SDS011;39791;53.184;5.486;2022-12-18T04:34:46;100.53;;;43.92;;
53879;SDS011;39791;53.184;5.486;2022-12-18T04:37:12;113.25;;;46.60;;
53879;SDS011;39791;53.184;5.486;2022-12-18T04:39:38;122.60;;;45.42;;
53879;SDS011;39791;53.184;5.486;2022-12-18T04:42:04;122.20;;;51.13;;
53879;SDS011;39791;53.184;5.486;2022-12-18T04:44:29;132.27;;;52.28;;
53879;SDS011;39791;53.184;5.486;2022-12-18T04:46:55;94.82;;;39.22;;
53879;SDS011;39791;53.184;5.486;2022-12-18T04:49:21;113.25;;;40.70;;
53879;SDS011;39791;53.184;5.486;2022-12-18T04:51:46;90.53;;;33.97;;
53879;SDS011;39791;53.184;5.486;2022-12-18T04:54:12;129.60;;;45.55;;
53879;SDS011;39791;53.184;5.486;2022-12-18T04:56:37;117.90;;;43.20;;
53879;SDS011;39791;53.184;5.486;2022-12-18T04:59:03;105.30;;;45.35;;
53879;SDS011;39791;53.184;5.486;2022-12-18T05:01:28;111.85;;;43.22;;
53879;SDS011;39791;53.184;5.486;2022-12-18T05:03:54;105.38;;;43.97;;
53879;SDS011;39791;53.184;5.486;2022-12-18T05:06:19;92.00;;;39.33;;
53879;SDS011;39791;53.184;5.486;2022-12-18T05:08:45;96.35;;;39.80;;
53879;SDS011;39791;53.184;5.486;2022-12-18T05:11:12;99.00;;;43.05;;
53879;SDS011;39791;53.184;5.486;2022-12-18T05:13:41;106.15;;;44.15;;
53879;SDS011;39791;53.184;5.486;2022-12-18T05:16:08;118.95;;;49.88;;
53879;SDS011;39791;53.184;5.486;2022-12-18T05:18:34;105.60;;;45.55;;
53879;SDS011;39791;53.184;5.486;2022-12-18T05:21:00;97.70;;;41.38;;
53879;SDS011;39791;53.184;5.486;2022-12-18T05:23:26;258.55;;;49.70;;
53879;SDS011;39791;53.184;5.486;2022-12-18T05:25:53;101.47;;;42.33;;
53879;SDS011;39791;53.184;5.486;2022-12-18T05:28:20;89.85;;;39.45;;
53879;SDS011;39791;53.184;5.486;2022-12-18T05:30:51;98.55;;;40.90;;
53879;SDS011;39791;53.184;5.486;2022-12-18T05:33:18;94.63;;;41.38;;
53879;SDS011;39791;53.184;5.486;2022-12-18T05:35:44;83.00;;;36.47;;
53879;SDS011;39791;53.184;5.486;2022-12-18T05:38:28;82.18;;;36.05;;
53879;SDS011;39791;53.184;5.486;2022-12-18T05:40:55;95.47;;;42.90;;
53879;SDS011;39791;53.184;5.486;2022-12-18T05:43:22;90.65;;;38.42;;
53879;SDS011;39791;53.184;5.486;2022-12-18T05:45:48;89.90;;;39.42;;
53879;SDS011;39791;53.184;5.486;2022-12-18T05:48:14;98.13;;;41.10;;
53879;SDS011;39791;53.184;5.486;2022-12-18T05:50:41;88.85;;;39.35;;
53879;SDS011;39791;53.184;5.486;2022-12-18T05:53:10;88.43;;;37.97;;
53879;SDS011;39791;53.184;5.486;2022-12-18T05:55:36;89.38;;;40.33;;
53879;SDS011;39791;53.184;5.486;2022-12-18T05:58:03;95.40;;;41.20;;
53879;SDS011;39791;53.184;5.486;2022-12-18T06:00:30;92.40;;;40.80;;
53879;SDS011;39791;53.184;5.486;2022-12-18T06:02:56;86.07;;;34.22;;
53879;SDS011;39791;53.184;5.486;2022-12-18T06:05:22;91.90;;;40.15;;
53879;SDS011;39791;53.184;5.486;2022-12-18T06:07:48;66.13;;;29.90;;
53879;SDS011;39791;53.184;5.486;2022-12-18T06:10:13;76.65;;;33.95;;
53879;SDS011;39791;53.184;5.486;2022-12-18T06:12:39;75.60;;;32.90;;
53879;SDS011;39791;53.184;5.486;2022-12-18T06:15:05;71.38;;;29.40;;
53879;SDS011;39791;53.184;5.486;2022-12-18T06:17:31;67.85;;;26.90;;
53879;SDS011;39791;53.184;5.486;2022-12-18T06:19:57;74.90;;;32.28;;
53879;SDS011;39791;53.184;5.486;2022-12-18T06:22:23;75.45;;;29.90;;
53879;SDS011;39791;53.184;5.486;2022-12-18T06:24:49;64.00;;;29.20;;
53879;SDS011;39791;53.184;5.486;2022-12-18T06:27:15;70.10;;;30.85;;
53879;SDS011;39791;53.184;5.486;2022-12-18T06:29:41;78.25;;;32.63;;
53879;SDS011;39791;53.184;5.486;2022-12-18T06:32:06;77.45;;;36.53;;
53879;SDS011;39791;53.184;5.486;2022-12-18T06:34:32;84.22;;;38.28;;
53879;SDS011;39791;53.184;5.486;2022-12-18T06:36:58;91.13;;;36.92;;
53879;SDS011;39791;53.184;5.486;2022-12-18T06:39:24;87.80;;;40.88;;
53879;SDS011;39791;53.184;5.486;2022-12-18T06:41:52;684.17;;;54.95;;
53879;SDS011;39791;53.184;5.486;2022-12-18T06:44:18;78.68;;;31.15;;
53879;SDS011;39791;53.184;5.486;2022-12-18T06:46:43;69.63;;;31.88;;
53879;SDS011;39791;53.184;5.486;2022-12-18T06:49:09;69.50;;;29.48;;
53879;SDS011;39791;53.184;5.486;2022-12-18T06:51:34;62.35;;;25.63;;
53879;SDS011;39791;53.184;5.486;2022-12-18T06:54:00;61.15;;;27.92;;
53879;SDS011;39791;53.184;5.486;2022-12-18T06:56:26;53.28;;;24.20;;
53879;SDS011;39791;53.184;5.486;2022-12-18T06:58:52;67.97;;;31.48;;
53879;SDS011;39791;53.184;5.486;2022-12-18T07:01:17;54.78;;;25.02;;
53879;SDS011;39791;53.184;5.486;2022-12-18T07:03:43;66.72;;;30.80;;
53879;SDS011;39791;53.184;5.486;2022-12-18T07:06:16;60.42;;;27.30;;
53879;SDS011;39791;53.184;5.486;2022-12-18T07:08:44;74.30;;;33.53;;
53879;SDS011;39791;53.184;5.486;2022-12-18T07:11:10;53.47;;;24.73;;
53879;SDS011;39791;53.184;5.486;2022-12-18T07:13:36;62.95;;;30.30;;
53879;SDS011;39791;53.184;5.486;2022-12-18T07:16:05;65.95;;;30.83;;
53879;SDS011;39791;53.184;5.486;2022-12-18T07:18:35;54.45;;;23.05;;
53879;SDS011;39791;53.184;5.486;2022-12-18T07:21:02;47.08;;;22.92;;
53879;SDS011;39791;53.184;5.486;2022-12-18T07:23:33;51.22;;;24.48;;
53879;SDS011;39791;53.184;5.486;2022-12-18T07:26:06;57.13;;;26.10;;
53879;SDS011;39791;53.184;5.486;2022-12-18T07:28:36;54.50;;;24.42;;
53879;SDS011;39791;53.184;5.486;2022-12-18T07:31:06;54.80;;;23.83;;
53879;SDS011;39791;53.184;5.486;2022-12-18T07:33:44;51.78;;;25.25;;
53879;SDS011;39791;53.184;5.486;2022-12-18T07:36:11;51.28;;;24.33;;
53879;SDS011;39791;53.184;5.486;2022-12-18T07:38:37;59.60;;;25.63;;
53879;SDS011;39791;53.184;5.486;2022-12-18T07:41:04;46.72;;;20.27;;
53879;SDS011;39791;53.184;5.486;2022-12-18T07:43:31;58.65;;;25.80;;
53879;SDS011;39791;53.184;5.486;2022-12-18T07:45:57;53.42;;;24.33;;
53879;SDS011;39791;53.184;5.486;2022-12-18T07:48:22;43.33;;;20.35;;
53879;SDS011;39791;53.184;5.486;2022-12-18T07:50:48;56.92;;;24.80;;
53879;SDS011;39791;53.184;5.486;2022-12-18T07:53:14;67.15;;;29.60;;
53879;SDS011;39791;53.184;5.486;2022-12-18T07:55:40;59.75;;;26.13;;
53879;SDS011;39791;53.184;5.486;2022-12-18T07:58:06;53.10;;;25.38;;
53879;SDS011;39791;53.184;5.486;2022-12-18T08:00:32;56.33;;;25.75;;
53879;SDS011;39791;53.184;5.486;2022-12-18T08:02:59;46.08;;;19.98;;
53879;SDS011;39791;53.184;5.486;2022-12-18T08:05:24;59.67;;;28.15;;
53879;SDS011;39791;53.184;5.486;2022-12-18T08:07:50;57.22;;;25.85;;
53879;SDS011;39791;53.184;5.486;2022-12-18T08:10:16;42.72;;;21.42;;
53879;SDS011;39791;53.184;5.486;2022-12-18T08:12:42;56.05;;;25.13;;
53879;SDS011;39791;53.184;5.486;2022-12-18T08:15:07;50.42;;;22.95;;
53879;SDS011;39791;53.184;5.486;2022-12-18T08:17:33;47.38;;;20.60;;
53879;SDS011;39791;53.184;5.486;2022-12-18T08:19:59;44.30;;;22.13;;
53879;SDS011;39791;53.184;5.486;2022-12-18T08:22:25;58.05;;;24.67;;
53879;SDS011;39791;53.184;5.486;2022-12-18T08:24:50;50.28;;;23.95;;
53879;SDS011;39791;53.184;5.486;2022-12-18T08:27:16;41.85;;;20.50;;
53879;SDS011;39791;53.184;5.486;2022-12-18T08:29:41;46.83;;;23.83;;
53879;SDS011;39791;53.184;5.486;2022-12-18T08:32:07;52.55;;;26.52;;
53879;SDS011;39791;53.184;5.486;2022-12-18T08:34:33;52.22;;;23.77;;
53879;SDS011;39791;53.184;5.486;2022-12-18T08:36:58;44.60;;;21.60;;
53879;SDS011;39791;53.184;5.486;2022-12-18T08:39:24;45.05;;;18.95;;
53879;SDS011;39791;53.184;5.486;2022-12-18T08:41:49;41.90;;;19.00;;
53879;SDS011;39791;53.184;5.486;2022-12-18T08:44:33;38.20;;;18.92;;
53879;SDS011;39791;53.184;5.486;2022-12-18T08:47:02;38.22;;;18.65;;
53879;SDS011;39791;53.184;5.486;2022-12-18T08:49:28;39.97;;;21.77;;
53879;SDS011;39791;53.184;5.486;2022-12-18T08:51:54;37.42;;;17.85;;
53879;SDS011;39791;53.184;5.486;2022-12-18T08:54:22;40.20;;;18.88;;
53879;SDS011;39791;53.184;5.486;2022-12-18T08:56:48;48.38;;;20.77;;
53879;SDS011;39791;53.184;5.486;2022-12-18T08:59:14;34.20;;;17.13;;
53879;SDS011;39791;53.184;5.486;2022-12-18T09:01:40;40.92;;;22.08;;
53879;SDS011;39791;53.184;5.486;2022-12-18T09:04:07;46.92;;;22.77;;
53879;SDS011;39791;53.184;5.486;2022-12-18T09:06:33;55.83;;;26.10;;
53879;SDS011;39791;53.184;5.486;2022-12-18T09:08:59;50.15;;;25.95;;
53879;SDS011;39791;53.184;5.486;2022-12-18T09:11:25;235.85;;;29.15;;
53879;SDS011;39791;53.184;5.486;2022-12-18T09:13:52;46.42;;;23.60;;
53879;SDS011;39791;53.184;5.486;2022-12-18T09:16:19;46.63;;;24.10;;
53879;SDS011;39791;53.184;5.486;2022-12-18T09:18:46;42.25;;;22.95;;
53879;SDS011;39791;53.184;5.486;2022-12-18T09:21:13;43.75;;;21.92;;
53879;SDS011;39791;53.184;5.486;2022-12-18T09:23:43;41.47;;;22.00;;
53879;SDS011;39791;53.184;5.486;2022-12-18T09:26:09;37.55;;;20.13;;
53879;SDS011;39791;53.184;5.486;2022-12-18T09:28:35;43.15;;;22.63;;
53879;SDS011;39791;53.184;5.486;2022-12-18T09:31:05;38.53;;;20.63;;
53879;SDS011;39791;53.184;5.486;2022-12-18T09:33:32;34.85;;;18.80;;
53879;SDS011;39791;53.184;5.486;2022-12-18T09:36:00;44.05;;;23.08;;
53879;SDS011;39791;53.184;5.486;2022-12-18T09:38:27;42.85;;;23.73;;
53879;SDS011;39791;53.184;5.486;2022-12-18T09:40:53;40.90;;;22.23;;
53879;SDS011;39791;53.184;5.486;2022-12-18T09:43:28;42.08;;;22.20;;
53879;SDS011;39791;53.184;5.486;2022-12-18T09:46:08;40.55;;;22.52;;
53879;SDS011;39791;53.184;5.486;2022-12-18T09:48:42;37.05;;;18.70;;
53879;SDS011;39791;53.184;5.486;2022-12-18T09:53:40;31.45;;;16.98;;
53879;SDS011;39791;53.184;5.486;2022-12-18T09:56:12;28.33;;;16.73;;
53879;SDS011;39791;53.184;5.486;2022-12-18T09:58:45;33.38;;;14.43;;
53879;SDS011;39791;53.184;5.486;2022-12-18T10:01:22;30.45;;;16.38;;
53879;SDS011;39791;53.184;5.486;2022-12-18T10:03:48;29.52;;;15.52;;
53879;SDS011;39791;53.184;5.486;2022-12-18T10:06:18;34.33;;;18.05;;
53879;SDS011;39791;53.184;5.486;2022-12-18T10:09:15;36.35;;;18.67;;
53879;SDS011;39791;53.184;5.486;2022-12-18T10:12:05;30.77;;;17.63;;
53879;SDS011;39791;53.184;5.486;2022-12-18T10:14:43;28.27;;;15.65;;
53879;SDS011;39791;53.184;5.486;2022-12-18T10:20:19;26.15;;;13.63;;
53879;SDS011;39791;53.184;5.486;2022-12-18T10:23:26;23.80;;;11.90;;
53879;SDS011;39791;53.184;5.486;2022-12-18T10:26:12;27.00;;;15.13;;
53879;SDS011;39791;53.184;5.486;2022-12-18T10:28:39;32.88;;;17.02;;
53879;SDS011;39791;53.184;5.486;2022-12-18T10:31:06;27.42;;;16.00;;
53879;SDS011;39791;53.184;5.486;2022-12-18T10:33:38;27.15;;;17.67;;
53879;SDS011;39791;53.184;5.486;2022-12-18T10:36:03;26.50;;;14.90;;
53879;SDS011;39791;53.184;5.486;2022-12-18T10:38:31;24.05;;;14.43;;
53879;SDS011;39791;53.184;5.486;2022-12-18T10:40:58;31.27;;;16.85;;
53879;SDS011;39791;53.184;5.486;2022-12-18T10:51:16;24.40;;;14.07;;
53879;SDS011;39791;53.184;5.486;2022-12-18T10:53:53;26.10;;;13.85;;
53879;SDS011;39791;53.184;5.486;2022-12-18T10:56:20;22.55;;;12.88;;
53879;SDS011;39791;53.184;5.486;2022-12-18T10:58:55;25.25;;;12.77;;
53879;SDS011;39791;53.184;5.486;2022-12-18T11:01:22;21.08;;;12.52;;
53879;SDS011;39791;53.184;5.486;2022-12-18T11:06:20;18.45;;;11.18;;
53879;SDS011;39791;53.184;5.486;2022-12-18T11:09:03;23.40;;;12.57;;
53879;SDS011;39791;53.184;5.486;2022-12-18T11:11:31;18.75;;;11.02;;
53879;SDS011;39791;53.184;5.486;2022-12-18T11:14:05;19.95;;;10.93;;
53879;SDS011;39791;53.184;5.486;2022-12-18T11:16:44;19.02;;;11.45;;
53879;SDS011;39791;53.184;5.486;2022-12-18T11:19:19;20.98;;;11.48;;
53879;SDS011;39791;53.184;5.486;2022-12-18T11:21:49;19.70;;;11.18;;
53879;SDS011;39791;53.184;5.486;2022-12-18T11:24:20;19.02;;;12.40;;
53879;SDS011;39791;53.184;5.486;2022-12-18T11:26:54;18.85;;;11.52;;
53879;SDS011;39791;53.184;5.486;2022-12-18T11:29:24;17.80;;;9.93;;
53879;SDS011;39791;53.184;5.486;2022-12-18T11:34:39;21.27;;;11.43;;
53879;SDS011;39791;53.184;5.486;2022-12-18T11:37:10;19.95;;;9.80;;
53879;SDS011;39791;53.184;5.486;2022-12-18T11:47:55;13.48;;;8.50;;
53879;SDS011;39791;53.184;5.486;2022-12-18T11:50:26;14.88;;;8.07;;
53879;SDS011;39791;53.184;5.486;2022-12-18T11:53:03;16.77;;;9.90;;
53879;SDS011;39791;53.184;5.486;2022-12-18T11:58:12;11.73;;;7.50;;
53879;SDS011;39791;53.184;5.486;2022-12-18T12:04:17;15.55;;;10.40;;
53879;SDS011;39791;53.184;5.486;2022-12-18T12:07:12;17.52;;;9.75;;
53879;SDS011;39791;53.184;5.486;2022-12-18T12:10:06;14.40;;;8.63;;
53879;SDS011;39791;53.184;5.486;2022-12-18T12:16:02;14.32;;;8.52;;
53879;SDS011;39791;53.184;5.486;2022-12-18T12:23:41;14.50;;;9.00;;
53879;SDS011;39791;53.184;5.486;2022-12-18T12:26:10;16.42;;;8.45;;
53879;SDS011;39791;53.184;5.486;2022-12-18T12:34:23;14.32;;;9.07;;
53879;SDS011;39791;53.184;5.486;2022-12-18T12:39:22;14.52;;;8.73;;
53879;SDS011;39791;53.184;5.486;2022-12-18T12:41:53;16.00;;;8.52;;
53879;SDS011;39791;53.184;5.486;2022-12-18T12:44:39;16.98;;;10.95;;
53879;SDS011;39791;53.184;5.486;2022-12-18T12:47:24;16.73;;;11.15;;
53879;SDS011;39791;53.184;5.486;2022-12-18T12:50:02;18.50;;;10.40;;
53879;SDS011;39791;53.184;5.486;2022-12-18T12:52:35;16.42;;;10.48;;
53879;SDS011;39791;53.184;5.486;2022-12-18T12:55:13;14.70;;;9.63;;
53879;SDS011;39791;53.184;5.486;2022-12-18T12:57:48;16.13;;;10.48;;
53879;SDS011;39791;53.184;5.486;2022-12-18T13:00:55;14.95;;;10.50;;
53879;SDS011;39791;53.184;5.486;2022-12-18T13:06:14;14.95;;;9.77;;
53879;SDS011;39791;53.184;5.486;2022-12-18T13:08:59;16.20;;;10.45;;
53879;SDS011;39791;53.184;5.486;2022-12-18T13:11:36;13.85;;;9.45;;
53879;SDS011;39791;53.184;5.486;2022-12-18T13:14:31;15.68;;;9.85;;
53879;SDS011;39791;53.184;5.486;2022-12-18T13:19:44;13.82;;;8.75;;
53879;SDS011;39791;53.184;5.486;2022-12-18T13:22:22;13.15;;;9.50;;
53879;SDS011;39791;53.184;5.486;2022-12-18T13:24:53;13.77;;;9.15;;
53879;SDS011;39791;53.184;5.486;2022-12-18T13:30:52;13.85;;;8.98;;
53879;SDS011;39791;53.184;5.486;2022-12-18T13:38:24;15.63;;;10.40;;
53879;SDS011;39791;53.184;5.486;2022-12-18T13:43:46;13.20;;;7.82;;
53879;SDS011;39791;53.184;5.486;2022-12-18T13:51:31;12.05;;;8.38;;
53879;SDS011;39791;53.184;5.486;2022-12-18T13:54:02;16.10;;;8.60;;
53879;SDS011;39791;53.184;5.486;2022-12-18T13:56:42;13.68;;;9.13;;
53879;SDS011;39791;53.184;5.486;2022-12-18T13:59:16;14.38;;;9.55;;
53879;SDS011;39791;53.184;5.486;2022-12-18T14:04:17;12.52;;;8.23;;
53879;SDS011;39791;53.184;5.486;2022-12-18T14:06:43;15.90;;;9.07;;
53879;SDS011;39791;53.184;5.486;2022-12-18T14:09:12;13.85;;;8.10;;
53879;SDS011;39791;53.184;5.486;2022-12-18T14:11:40;13.25;;;8.07;;
53879;SDS011;39791;53.184;5.486;2022-12-18T14:14:12;16.63;;;8.35;;
53879;SDS011;39791;53.184;5.486;2022-12-18T14:16:40;13.07;;;8.73;;
53879;SDS011;39791;53.184;5.486;2022-12-18T14:19:08;12.45;;;8.32;;
53879;SDS011;39791;53.184;5.486;2022-12-18T14:21:38;12.57;;;8.18;;
53879;SDS011;39791;53.184;5.486;2022-12-18T14:24:05;10.43;;;7.32;;
53879;SDS011;39791;53.184;5.486;2022-12-18T14:26:52;12.43;;;8.27;;
53879;SDS011;39791;53.184;5.486;2022-12-18T14:29:25;12.25;;;7.68;;
53879;SDS011;39791;53.184;5.486;2022-12-18T14:32:05;12.02;;;7.60;;
53879;SDS011;39791;53.184;5.486;2022-12-18T14:34:31;12.30;;;7.80;;
53879;SDS011;39791;53.184;5.486;2022-12-18T14:36:56;14.20;;;8.82;;
53879;SDS011;39791;53.184;5.486;2022-12-18T14:39:22;13.30;;;7.53;;
53879;SDS011;39791;53.184;5.486;2022-12-18T14:41:50;12.80;;;8.60;;
53879;SDS011;39791;53.184;5.486;2022-12-18T14:44:16;12.88;;;8.85;;
53879;SDS011;39791;53.184;5.486;2022-12-18T14:46:45;13.07;;;8.70;;
53879;SDS011;39791;53.184;5.486;2022-12-18T14:51:57;15.35;;;9.40;;
53879;SDS011;39791;53.184;5.486;2022-12-18T14:54:25;12.75;;;7.93;;
53879;SDS011;39791;53.184;5.486;2022-12-18T14:59:30;13.20;;;8.23;;
53879;SDS011;39791;53.184;5.486;2022-12-18T15:04:47;13.18;;;8.63;;
53879;SDS011;39791;53.184;5.486;2022-12-18T15:07:24;16.95;;;7.20;;
53879;SDS011;39791;53.184;5.486;2022-12-18T15:12:49;10.52;;;6.50;;
53879;SDS011;39791;53.184;5.486;2022-12-18T15:20:32;11.82;;;6.95;;
53879;SDS011;39791;53.184;5.486;2022-12-18T15:25:55;13.45;;;7.57;;
53879;SDS011;39791;53.184;5.486;2022-12-18T15:33:38;39.15;;;8.02;;
53879;SDS011;39791;53.184;5.486;2022-12-18T15:36:24;8.50;;;6.07;;
53879;SDS011;39791;53.184;5.486;2022-12-18T15:38:50;11.43;;;6.10;;
53879;SDS011;39791;53.184;5.486;2022-12-18T15:41:18;10.60;;;7.40;;
53879;SDS011;39791;53.184;5.486;2022-12-18T15:43:45;11.18;;;6.75;;
53879;SDS011;39791;53.184;5.486;2022-12-18T15:46:13;10.70;;;7.22;;
53879;SDS011;39791;53.184;5.486;2022-12-18T15:48:40;11.82;;;6.93;;
53879;SDS011;39791;53.184;5.486;2022-12-18T15:51:14;10.50;;;6.75;;
53879;SDS011;39791;53.184;5.486;2022-12-18T15:53:43;9.23;;;6.60;;
53879;SDS011;39791;53.184;5.486;2022-12-18T15:56:12;11.45;;;6.65;;
53879;SDS011;39791;53.184;5.486;2022-12-18T15:58:59;12.40;;;7.10;;
53879;SDS011;39791;53.184;5.486;2022-12-18T16:01:26;14.38;;;7.53;;
53879;SDS011;39791;53.184;5.486;2022-12-18T16:03:54;10.93;;;7.05;;
53879;SDS011;39791;53.184;5.486;2022-12-18T16:06:20;11.70;;;6.60;;
53879;SDS011;39791;53.184;5.486;2022-12-18T16:08:46;8.63;;;5.43;;
53879;SDS011;39791;53.184;5.486;2022-12-18T16:11:31;9.70;;;6.03;;
53879;SDS011;39791;53.184;5.486;2022-12-18T16:14:06;12.07;;;7.72;;
53879;SDS011;39791;53.184;5.486;2022-12-18T16:16:37;13.68;;;7.78;;
53879;SDS011;39791;53.184;5.486;2022-12-18T16:19:03;13.23;;;8.45;;
53879;SDS011;39791;53.184;5.486;2022-12-18T16:21:29;13.07;;;7.88;;
53879;SDS011;39791;53.184;5.486;2022-12-18T16:23:55;12.60;;;8.93;;
53879;SDS011;39791;53.184;5.486;2022-12-18T16:26:20;9.15;;;6.72;;
53879;SDS011;39791;53.184;5.486;2022-12-18T16:28:46;10.52;;;6.10;;